sensor_id;sensor_type;location;lat;lon;timestamp;temperature;humidity
16968;DHT22;64862;54.398;10.126;2023-05-07T00:02:27;8.80;99.90
16968;DHT22;64862;54.398;10.126;2023-05-07T00:12:30;8.90;99.90
16968;DHT22;64862;54.398;10.126;2023-05-07T00:22:35;8.80;99.90
16968;DHT22;64862;54.398;10.126;2023-05-07T00:32:41;8.80;99.90
16968;DHT22;64862;54.398;10.126;2023-05-07T00:42:47;8.90;99.90
16968;DHT22;64862;54.398;10.126;2023-05-07T00:52:57;8.90;99.90
16968;DHT22;64862;54.398;10.126;2023-05-07T01:03:02;8.90;99.90
16968;DHT22;64862;54.398;10.126;2023-05-07T01:13:07;8.90;99.90
16968;DHT22;64862;54.398;10.126;2023-05-07T01:23:11;9.10;99.90
16968;DHT22;64862;54.398;10.126;2023-05-07T01:33:15;9.20;99.90
16968;DHT22;64862;54.398;10.126;2023-05-07T01:43:19;9.10;99.90
16968;DHT22;64862;54.398;10.126;2023-05-07T01:53:22;9.10;99.90
16968;DHT22;64862;54.398;10.126;2023-05-07T02:03:26;9.20;99.90
16968;DHT22;64862;54.398;10.126;2023-05-07T02:13:37;9.20;99.90
16968;DHT22;64862;54.398;10.126;2023-05-07T02:23:41;9.20;99.90
16968;DHT22;64862;54.398;10.126;2023-05-07T02:33:44;9.30;99.90
16968;DHT22;64862;54.398;10.126;2023-05-07T02:43:49;9.30;99.90
16968;DHT22;64862;54.398;10.126;2023-05-07T02:53:52;9.40;99.90
16968;DHT22;64862;54.398;10.126;2023-05-07T03:03:57;9.40;99.90
16968;DHT22;64862;54.398;10.126;2023-05-07T03:14:00;9.30;99.90
16968;DHT22;64862;54.398;10.126;2023-05-07T03:24:05;9.40;99.90
16968;DHT22;64862;54.398;10.126;2023-05-07T03:34:07;9.40;99.90
16968;DHT22;64862;54.398;10.126;2023-05-07T03:44:11;9.40;99.90
16968;DHT22;64862;54.398;10.126;2023-05-07T03:54:15;9.30;99.90
16968;DHT22;64862;54.398;10.126;2023-05-07T04:04:21;9.50;99.90
16968;DHT22;64862;54.398;10.126;2023-05-07T04:14:23;9.60;99.90
16968;DHT22;64862;54.398;10.126;2023-05-07T04:24:30;9.60;99.90
16968;DHT22;64862;54.398;10.126;2023-05-07T04:34:33;9.60;99.90
16968;DHT22;64862;54.398;10.126;2023-05-07T04:44:38;9.40;99.90
16968;DHT22;64862;54.398;10.126;2023-05-07T04:54:40;9.50;99.90
16968;DHT22;64862;54.398;10.126;2023-05-07T05:04:46;9.40;99.90
16968;DHT22;64862;54.398;10.126;2023-05-07T05:14:49;9.50;99.90
16968;DHT22;64862;54.398;10.126;2023-05-07T05:24:53;9.60;99.90
16968;DHT22;64862;54.398;10.126;2023-05-07T05:34:56;9.60;99.90
16968;DHT22;64862;54.398;10.126;2023-05-07T05:45:01;9.70;99.90
16968;DHT22;64862;54.398;10.126;2023-05-07T05:55:06;9.70;99.90
16968;DHT22;64862;54.398;10.126;2023-05-07T06:05:11;9.90;99.90
16968;DHT22;64862;54.398;10.126;2023-05-07T06:15:14;10.00;99.90
16968;DHT22;64862;54.398;10.126;2023-05-07T06:25:21;10.30;99.90
16968;DHT22;64862;54.398;10.126;2023-05-07T06:35:23;10.10;99.90
16968;DHT22;64862;54.398;10.126;2023-05-07T06:45:29;10.30;99.90
16968;DHT22;64862;54.398;10.126;2023-05-07T06:55:32;10.30;99.90
16968;DHT22;64862;54.398;10.126;2023-05-07T07:05:37;10.60;99.90
16968;DHT22;64862;54.398;10.126;2023-05-07T07:15:39;10.80;99.90
16968;DHT22;64862;54.398;10.126;2023-05-07T07:25:43;11.10;99.90
16968;DHT22;64862;54.398;10.126;2023-05-07T07:35:46;11.40;99.90
16968;DHT22;64862;54.398;10.126;2023-05-07T07:45:50;11.60;99.90
16968;DHT22;64862;54.398;10.126;2023-05-07T07:55:53;11.80;99.90
16968;DHT22;64862;54.398;10.126;2023-05-07T08:06:00;12.50;99.90
16968;DHT22;64862;54.398;10.126;2023-05-07T08:16:05;13.20;99.90
16968;DHT22;64862;54.398;10.126;2023-05-07T08:26:10;13.20;99.90
16968;DHT22;64862;54.398;10.126;2023-05-07T08:36:13;13.30;99.90
16968;DHT22;64862;54.398;10.126;2023-05-07T08:46:19;14.30;99.90
16968;DHT22;64862;54.398;10.126;2023-05-07T08:56:22;14.30;99.90
16968;DHT22;64862;54.398;10.126;2023-05-07T09:06:29;14.30;99.90
16968;DHT22;64862;54.398;10.126;2023-05-07T09:16:32;14.70;99.90
16968;DHT22;64862;54.398;10.126;2023-05-07T09:26:37;14.30;99.90
16968;DHT22;64862;54.398;10.126;2023-05-07T09:36:40;14.00;99.90
16968;DHT22;64862;54.398;10.126;2023-05-07T09:46:47;15.20;99.90
16968;DHT22;64862;54.398;10.126;2023-05-07T09:57:04;14.20;99.90
16968;DHT22;64862;54.398;10.126;2023-05-07T10:07:10;16.80;99.90
16968;DHT22;64862;54.398;10.126;2023-05-07T10:17:13;17.00;99.90
16968;DHT22;64862;54.398;10.126;2023-05-07T10:27:22;16.30;99.90
16968;DHT22;64862;54.398;10.126;2023-05-07T10:37:28;18.10;99.90
16968;DHT22;64862;54.398;10.126;2023-05-07T10:47:34;19.40;99.90
16968;DHT22;64862;54.398;10.126;2023-05-07T10:57:37;18.70;99.90
16968;DHT22;64862;54.398;10.126;2023-05-07T11:07:55;18.40;99.90
16968;DHT22;64862;54.398;10.126;2023-05-07T11:18:03;17.20;99.90
16968;DHT22;64862;54.398;10.126;2023-05-07T11:28:12;16.70;99.90
16968;DHT22;64862;54.398;10.126;2023-05-07T11:38:20;16.50;99.90
16968;DHT22;64862;54.398;10.126;2023-05-07T11:48:25;16.10;99.90
16968;DHT22;64862;54.398;10.126;2023-05-07T11:58:32;16.00;99.90
16968;DHT22;64862;54.398;10.126;2023-05-07T12:18:50;16.30;99.90
16968;DHT22;64862;54.398;10.126;2023-05-07T12:28:53;16.60;99.90
16968;DHT22;64862;54.398;10.126;2023-05-07T12:38:56;16.50;99.90
16968;DHT22;64862;54.398;10.126;2023-05-07T12:48:59;16.50;99.90
16968;DHT22;64862;54.398;10.126;2023-05-07T12:59:02;16.50;99.90
16968;DHT22;64862;54.398;10.126;2023-05-07T13:09:04;16.20;99.90
16968;DHT22;64862;54.398;10.126;2023-05-07T13:19:08;16.00;99.90
16968;DHT22;64862;54.398;10.126;2023-05-07T13:29:11;16.10;99.90
16968;DHT22;64862;54.398;10.126;2023-05-07T13:39:14;15.90;99.90
16968;DHT22;64862;54.398;10.126;2023-05-07T13:49:16;15.70;99.90
16968;DHT22;64862;54.398;10.126;2023-05-07T13:59:19;16.00;99.90
16968;DHT22;64862;54.398;10.126;2023-05-07T14:09:21;15.50;99.90
16968;DHT22;64862;54.398;10.126;2023-05-07T14:19:25;15.70;99.90
16968;DHT22;64862;54.398;10.126;2023-05-07T14:29:27;15.90;99.90
16968;DHT22;64862;54.398;10.126;2023-05-07T14:39:30;15.90;99.90
16968;DHT22;64862;54.398;10.126;2023-05-07T14:49:32;15.60;99.90
16968;DHT22;64862;54.398;10.126;2023-05-07T14:59:36;15.70;99.90
16968;DHT22;64862;54.398;10.126;2023-05-07T15:09:39;15.30;99.90
16968;DHT22;64862;54.398;10.126;2023-05-07T15:19:42;15.50;99.90
16968;DHT22;64862;54.398;10.126;2023-05-07T15:29:44;15.30;99.90
16968;DHT22;64862;54.398;10.126;2023-05-07T15:39:47;15.20;99.90
16968;DHT22;64862;54.398;10.126;2023-05-07T15:49:49;15.20;99.90
16968;DHT22;64862;54.398;10.126;2023-05-07T15:59:53;15.00;99.90
16968;DHT22;64862;54.398;10.126;2023-05-07T16:09:55;14.90;99.90
16968;DHT22;64862;54.398;10.126;2023-05-07T16:19:59;14.50;99.90
16968;DHT22;64862;54.398;10.126;2023-05-07T16:30:01;14.40;99.90
16968;DHT22;64862;54.398;10.126;2023-05-07T16:40:06;14.30;99.90
16968;DHT22;64862;54.398;10.126;2023-05-07T16:50:09;14.10;99.90
16968;DHT22;64862;54.398;10.126;2023-05-07T17:00:16;13.90;99.90
16968;DHT22;64862;54.398;10.126;2023-05-07T17:10:18;13.60;99.90
16968;DHT22;64862;54.398;10.126;2023-05-07T17:20:22;13.40;99.90
16968;DHT22;64862;54.398;10.126;2023-05-07T17:30:25;13.30;99.90
16968;DHT22;64862;54.398;10.126;2023-05-07T17:40:28;13.10;99.90
16968;DHT22;64862;54.398;10.126;2023-05-07T17:50:30;13.00;99.90
16968;DHT22;64862;54.398;10.126;2023-05-07T18:00:34;12.80;99.90
16968;DHT22;64862;54.398;10.126;2023-05-07T18:10:37;12.70;99.90
16968;DHT22;64862;54.398;10.126;2023-05-07T18:20:40;12.50;99.90
16968;DHT22;64862;54.398;10.126;2023-05-07T18:30:42;12.30;99.90
16968;DHT22;64862;54.398;10.126;2023-05-07T18:40:49;12.10;99.90
16968;DHT22;64862;54.398;10.126;2023-05-07T18:50:53;12.00;99.90
16968;DHT22;64862;54.398;10.126;2023-05-07T19:00:57;11.90;99.90
16968;DHT22;64862;54.398;10.126;2023-05-07T19:10:59;11.70;99.90
16968;DHT22;64862;54.398;10.126;2023-05-07T19:21:03;11.50;99.90
16968;DHT22;64862;54.398;10.126;2023-05-07T19:31:05;11.40;99.90
16968;DHT22;64862;54.398;10.126;2023-05-07T19:41:09;11.40;99.90
16968;DHT22;64862;54.398;10.126;2023-05-07T19:51:11;11.30;99.90
16968;DHT22;64862;54.398;10.126;2023-05-07T20:01:15;11.20;99.90
16968;DHT22;64862;54.398;10.126;2023-05-07T20:11:21;11.20;99.90
16968;DHT22;64862;54.398;10.126;2023-05-07T20:21:25;11.10;99.90
16968;DHT22;64862;54.398;10.126;2023-05-07T20:31:27;11.60;99.90
16968;DHT22;64862;54.398;10.126;2023-05-07T20:41:33;11.00;99.90
16968;DHT22;64862;54.398;10.126;2023-05-07T20:51:35;11.20;99.90
16968;DHT22;64862;54.398;10.126;2023-05-07T21:01:39;11.10;99.90
16968;DHT22;64862;54.398;10.126;2023-05-07T21:11:42;11.10;99.90
16968;DHT22;64862;54.398;10.126;2023-05-07T21:21:46;11.10;99.90
16968;DHT22;64862;54.398;10.126;2023-05-07T21:31:51;11.00;99.90
16968;DHT22;64862;54.398;10.126;2023-05-07T21:41:55;10.90;99.90
16968;DHT22;64862;54.398;10.126;2023-05-07T21:51:57;10.90;99.90
16968;DHT22;64862;54.398;10.126;2023-05-07T22:02:02;10.90;99.90
